• Join FlightAware (Why Join?)
  • Login
  • US Flag 
06:17PM EDT


 

Airport Tracker/Info


-or-


 

Live Flight TrackerFlight Track Log ✈ N527PA ✈ 30-Apr-2013 ✈ KDPG - KVPC

Flight Track Log - Related Links

Times and Time Zones

All times are in EDT time to prevent confusion due to time zone crossing. See the N527PA flight status page for this flight to view local times or setup timezone preferences in your user account.

Time Position Orientation Groundspeed Altitude Reporting Facility
EDT Latitude Longitude Course Direction KTS MPH feet Rate Location/Type
12:43PM 40.1678 -112.7828 90° East 287 330 11,500  Level Salt Lake Center
12:44PM 40.1792 -112.6703 82° East 317 365 13,500 1,980 Climbing Salt Lake Center
12:45PM 40.1944 -112.5442 81° East 333 383 15,600 1,860 Climbing Salt Lake Center
12:46PM 40.1919 -112.4044 91° East 380 437 17,400 1,800 Climbing Salt Lake Center
12:47PM 40.2652 -112.0253 78° East  Level FlightAware Approximate
12:47PM 40.1747 -112.2625 99° East 395 455 19,300  Level Salt Lake Center
12:48PM 40.2667 -111.8726 90° East  Level FlightAware Approximate
12:48PM 40.1600 -112.1128 97° East 417 480 21,300  Level Salt Lake Center
12:49PM 40.1439 -111.9611 98° East 423 487 23,100 1,680 Climbing Salt Lake Center
12:50PM 40.1219 -111.7722 99° East 442 509 24,800 1,380 Climbing Salt Lake Center
12:51PM 40.1064 -111.6097 97° East 452 520 26,000 1,200 Climbing Salt Lake Center
12:52PM 40.0886 -111.4436 98° East 464 534 27,300 1,080 Climbing Salt Lake Center
12:53PM 40.0608 -111.2775 102° East 470 541 28,300 1,020 Climbing Salt Lake Center
12:54PM 40.0369 -111.0997 100° East 476 548 29,500 1,260 Climbing Salt Lake Center
12:55PM 40.0100 -110.9125 101° East 473 544 30,900 900 Climbing Salt Lake Center
12:56PM 39.9889 -110.7481 99° East 479 551 31,400 780 Climbing Salt Lake Center
12:57PM 39.9661 -110.5842 100° East 482 555 32,500 1,020 Climbing Salt Lake Center
12:58PM 39.9411 -110.3950 100° East 476 548 33,600 840 Climbing Salt Lake Center
12:59PM 39.9175 -110.2336 101° East 476 548 34,300 660 Climbing Salt Lake Center
01:00PM 39.8903 -110.0444 101° East 475 547 35,000 300 Climbing Salt Lake Center
01:01PM 39.8647 -109.8769 101° East 490 564 35,000  Level Salt Lake Center
01:02PM 39.8325 -109.6781 102° East 502 578 35,100  Climbing Salt Lake Center
01:02PM 39.8239 -109.6194 101° East 504 580 35,000  Descending Denver Center
01:04PM 39.7967 -109.4467 102° East 509 586 35,100  Climbing Denver Center
01:04PM 39.7800 -109.3336 101° East 508 585 35,100  Level Salt Lake Center
01:05PM 39.7511 -109.1317 100° East 509 586 35,100  Level Salt Lake Center
01:06PM 39.7425 -109.0731 101° East 506 582 35,100  Level Denver Center
01:07PM 39.7106 -108.8714 102° East 507 583 35,100 -60 Level Denver Center
01:08PM 39.6842 -108.6903 101° East 511 588 35,000  Descending Denver Center
01:09PM 39.6575 -108.5169 101° East 508 585 35,100  Climbing Denver Center
01:10PM 39.6275 -108.3178 101° East 504 580 35,100  Level Denver Center
01:11PM 39.6008 -108.1494 102° East 498 573 35,100  Level Denver Center
01:12PM 39.5692 -107.9522 102° East 501 577 35,100  Level Denver Center
01:13PM 39.5400 -107.7839 103° East 502 578 35,100  Level Denver Center
01:14PM 39.5100 -107.6150 103° East 503 579 35,100  Level Denver Center
01:15PM 39.4733 -107.4178 103° East 505 581 35,100  Level Denver Center
01:16PM 39.4431 -107.2489 103° East 505 581 35,100  Level Denver Center
01:17PM 39.4083 -107.0500 103° East 509 586 35,100  Level Denver Center
01:18PM 39.3786 -106.8828 103° East 501 577 35,100  Level Denver Center
01:19PM 39.3431 -106.6864 103° East 502 578 35,100 -60 Level Denver Center
01:20PM 39.3131 -106.5186 103° East 501 577 35,000  Descending Denver Center
01:21PM 39.2800 -106.3236 102° East 500 575 35,100  Climbing Denver Center
01:22PM 39.2467 -106.1519 104° East 498 573 35,000  Descending Denver Center
01:23PM 39.2133 -105.9794 104° East 497 572 35,100  Climbing Denver Center
01:24PM 39.1742 -105.7711 104° East 498 573 35,100 -60 Level Denver Center
01:25PM 39.1392 -105.5797 103° East 494 568 35,000 -60 Descending Denver Center
01:26PM 39.1092 -105.4167 103° East 491 565 35,000  Level Denver Center
01:28PM 39.0717 -105.2267 104° East 489 563 35,000  Level Denver Center
01:29PM 39.0367 -105.0547 105° East 491 565 35,000  Level Denver Center
01:30PM 39.0019 -104.8764 104° East 488 562 35,100  Climbing Denver Center
01:31PM 38.9689 -104.7144 105° East 488 562 35,000 -60 Descending Denver Center
01:32PM 38.9308 -104.5272 105° East 484 557 35,000  Level Denver Center
01:33PM 38.8986 -104.3692 105° East 479 551 35,100  Climbing Denver Center
01:34PM 38.8617 -104.1814 104° East 484 557 35,100  Level Denver Center
01:35PM 38.8306 -104.0294 105° East 482 555 35,100  Level Denver Center
01:36PM 38.7889 -103.8092 104° East 481 554 35,100  Level Denver Center
01:37PM 38.7575 -103.6492 104° East 482 555 35,100  Level Denver Center
01:38PM 38.7197 -103.4650 105° East 481 554 35,100  Level Denver Center
01:39PM 38.6844 -103.2978 105° East 472 543 35,100 -60 Level Denver Center
01:40PM 38.6547 -103.1506 104° East 480 552 35,000  Descending Denver Center
01:41PM 38.6169 -102.9575 104° East 474 545 35,100  Climbing Denver Center
01:42PM 38.5861 -102.8125 105° East 474 545 35,100  Level Denver Center
01:43PM 38.5492 -102.6472 106° East 474 545 35,100  Level Denver Center
01:44PM 38.5108 -102.4672 105° East 472 543 35,100  Level Denver Center
01:45PM 38.4769 -102.3153 106° East 468 539 35,100  Level Denver Center
01:46PM 38.4428 -102.1619 106° East 468 539 35,100  Level Denver Center
01:47PM 38.4039 -101.9833 105° East 469 540 35,100  Level Denver Center
01:48PM 38.3650 -101.8061 106° East 468 539 35,100  Level Denver Center
01:49PM 38.3308 -101.6528 106° East 468 539 35,100  Level Denver Center
01:50PM 38.2906 -101.4736 106° East 471 542 35,100  Level Denver Center
01:51PM 38.2553 -101.3214 106° East 469 540 35,100  Level Denver Center
01:52PM 38.2153 -101.1425 106° East 468 539 35,100  Level Denver Center
01:54PM 38.1800 -100.9894 106° East 468 539 35,100  Level Denver Center
01:55PM 38.1350 -100.7850 106° East 469 540 35,100  Level Denver Center
01:56PM 38.0864 -100.5786 107° East 469 540 35,100  Level Kansas City Center
01:57PM 38.0511 -100.4256 106° East 470 541 35,100  Level Kansas City Center
01:58PM 38.0097 -100.2503 107° East 466 536 35,100  Level Kansas City Center
01:59PM 37.9725 -100.0992 107° East 466 536 35,100  Level Kansas City Center
02:00PM 37.9278 -99.9228 108° East 468 539 35,100 -60 Level Kansas City Center
02:01PM 37.8889 -99.7736 108° East 467 537 35,000  Descending Kansas City Center
02:02PM 37.8453 -99.6000 108° East 465 535 35,100  Climbing Kansas City Center
02:03PM 37.8142 -99.4653 106° East 463 533 35,000 -60 Descending Kansas City Center
02:04PM 37.7767 -99.3122 107° East 460 529 35,000  Level Kansas City Center
02:05PM 37.7292 -99.1272 108° East 461 531 35,000  Level Kansas City Center
02:06PM 37.6911 -98.9739 107° East 460 529 35,100  Climbing Kansas City Center
02:07PM 37.6536 -98.8194 107° East 462 532 35,100 -60 Level Kansas City Center
02:09PM 37.6133 -98.6639 108° East 466 536 35,000  Descending Kansas City Center
02:10PM 37.5733 -98.5111 108° East 463 533 35,100  Climbing Kansas City Center
02:11PM 37.5281 -98.3281 107° East 461 531 35,100  Level Kansas City Center
02:12PM 37.4908 -98.1758 107° East 459 528 35,100  Level Kansas City Center
02:13PM 37.4531 -98.0239 107° East 458 527 35,100  Level Kansas City Center
02:14PM 37.4150 -97.8733 108° East 458 527 35,100 -60 Level Kansas City Center
02:15PM 37.3728 -97.7261 110° East 454 522 35,000 -60 Descending Kansas City Center
02:16PM 37.3183 -97.5506 111° Southeast 452 520 35,000  Level Kansas City Center
02:17PM 37.2772 -97.4036 109° East 450 518 35,000  Level Kansas City Center
02:18PM 37.2361 -97.2547 109° East 451 519 35,000  Level Kansas City Center
02:19PM 37.1978 -97.1053 108° East 452 520 35,100  Climbing Kansas City Center
02:20PM 37.1603 -96.9561 107° East 451 519 35,100 -60 Level Kansas City Center
02:21PM 37.1206 -96.8083 109° East 449 517 35,000 -60 Descending Kansas City Center
02:22PM 37.0756 -96.6433 109° East 448 516 35,000  Level Kansas City Center
02:23PM 37.0347 -96.4967 109° East 446 513 35,000  Level Kansas City Center
02:24PM 36.9939 -96.3483 109° East 447 514 35,100  Climbing Kansas City Center
02:25PM 36.9456 -96.1717 109° East 447 514 35,100 -60 Level Kansas City Center
02:26PM 36.9064 -96.0258 109° East 442 509 35,000 -60 Descending Kansas City Center
02:27PM 36.8669 -95.8789 109° East 443 510 35,000  Level Kansas City Center
02:28PM 36.8267 -95.7350 109° East 439 505 35,100  Climbing Kansas City Center
02:29PM 36.7864 -95.5886 109° East 441 507 35,000 -60 Descending Kansas City Center
02:30PM 36.7453 -95.4428 109° East 442 509 35,000  Level Kansas City Center
02:31PM 36.7028 -95.2958 110° East 443 510 35,100  Climbing Kansas City Center
02:32PM 36.6636 -95.1486 108° East 443 510 35,100 -60 Level Kansas City Center
02:33PM 36.6242 -95.0028 109° East 441 507 35,000 -60 Descending Kansas City Center
02:34PM 36.5778 -94.8275 108° East 441 507 35,000  Level Kansas City Center
02:35PM 36.5406 -94.6792 107° East 445 512 35,100  Climbing Kansas City Center
02:36PM 36.4997 -94.5342 109° East 443 510 35,000  Descending Kansas City Center
02:37PM 36.4525 -94.3919 112° Southeast 443 510 35,100  Climbing Kansas City Center
02:38PM 36.4069 -94.2475 111° Southeast 445 512 35,100  Level Kansas City Center
02:40PM 36.3617 -94.1047 111° Southeast 445 512 35,100  Level Kansas City Center
02:40PM 36.3458 -94.0517 110° East 442 509 35,100 -120 Level Memphis Center
02:41PM 36.3019 -93.9081 111° Southeast 442 509 35,000  Descending Memphis Center
02:42PM 36.2581 -93.7622 110° East 442 509 35,100  Climbing Memphis Center
02:43PM 36.2100 -93.6083 111° Southeast 442 509 35,000 -60 Descending Memphis Center
02:44PM 36.1681 -93.4628 110° East 442 509 35,000  Level Memphis Center
02:45PM 36.1214 -93.3197 112° Southeast 442 509 35,100  Climbing Memphis Center
02:46PM 36.0789 -93.1717 110° East 442 509 35,100  Level Memphis Center
02:47PM 36.0383 -93.0239 109° East 448 516 35,100  Level Memphis Center
02:48PM 35.9914 -92.8789 112° Southeast 453 521 35,100  Level Memphis Center
02:49PM 35.9483 -92.7314 110° East 458 527 35,100  Level Memphis Center
02:50PM 35.9033 -92.5814 110° East 458 527 35,100  Level Memphis Center
02:51PM 35.8536 -92.4392 113° Southeast 458 527 35,100 -60 Level Memphis Center
02:52PM 35.8081 -92.2947 111° Southeast 452 520 35,000  Descending Memphis Center
02:53PM 35.7622 -92.1503 111° Southeast 452 520 35,100  Climbing Memphis Center
02:54PM 35.7203 -92.0167 111° Southeast 460 529 35,000 -60 Descending Memphis Center
02:55PM 35.6761 -91.8700 110° East 460 529 35,000  Level Memphis Center
02:56PM 35.6297 -91.7261 112° Southeast 452 520 35,000  Level Memphis Center
02:57PM 35.5856 -91.5772 110° East 458 527 35,000  Level Memphis Center
02:58PM 35.5347 -91.4133 111° Southeast 458 527 35,100  Climbing Memphis Center
02:59PM 35.4881 -91.2622 111° Southeast 467 537 35,100 -60 Level Memphis Center
03:00PM 35.4347 -91.1189 115° Southeast 467 537 35,000  Descending Memphis Center
03:01PM 35.3772 -90.9733 116° Southeast 467 537 35,100  Climbing Memphis Center
03:02PM 35.3256 -90.8306 114° Southeast 459 528 35,000 -60 Descending Memphis Center
03:03PM 35.2719 -90.6878 115° Southeast 459 528 35,000 -300 Level Memphis Center
03:04PM 35.2139 -90.5400 116° Southeast 468 539 34,500 -600 Descending Memphis Center
03:05PM 35.1556 -90.3925 116° Southeast 479 551 33,800 -840 Descending Memphis Center
03:06PM 35.0969 -90.2481 116° Southeast 479 551 32,900 -840 Descending Memphis Center
03:07PM 35.0467 -90.1161 115° Southeast 479 551 32,200 -780 Descending Memphis Center
03:08PM 34.9922 -89.9692 114° Southeast 479 551 31,400 -1,080 Descending Memphis Center
03:09PM 34.9811 -89.8097 95° East 467 537 30,100 -1,020 Descending Memphis Center
03:10PM 34.9592 -89.6325 99° East 477 549 29,400 -600 Descending Memphis Center
03:11PM 34.9394 -89.4831 99° East 462 532 29,000 -240 Descending Memphis Center
03:12PM 34.9156 -89.3364 101° East 443 510 29,000  Level Memphis Center
03:13PM 34.8892 -89.1900 102° East 438 504 29,000  Level Memphis Center
03:14PM 34.8628 -89.0436 102° East 443 510 29,100  Climbing Memphis Center
03:15PM 34.8400 -88.8947 101° East 443 510 29,100  Level Memphis Center
03:16PM 34.8217 -88.7633 100° East 449 517 29,100  Level Memphis Center
03:17PM 34.7989 -88.6147 101° East 449 517 29,100  Level Memphis Center
03:18PM 34.7736 -88.4558 101° East 438 504 29,100  Level Memphis Center
03:19PM 34.7503 -88.3072 101° East 438 504 29,100  Level Memphis Center
03:20PM 34.7356 -88.1661 97° East 451 519 29,100  Level Memphis Center
03:21PM 34.7100 -88.0203 102° East 451 519 29,100  Level Memphis Center
03:22PM 34.6925 -87.8717 98° East 446 513 29,100  Level Memphis Center
03:23PM 34.6661 -87.7083 101° East 446 513 29,100 -60 Level Memphis Center
03:25PM 34.6069 -87.3725 102° East 435 501 29,000  Descending Atlanta Center
03:26PM 34.5758 -87.2100 103° East 440 506 29,100  Climbing Atlanta Center
03:27PM 34.5503 -87.0628 102° East 445 512 29,100 -60 Level Atlanta Center
03:28PM 34.5244 -86.9156 102° East 450 518 29,000 -480 Descending Atlanta Center
03:29PM 34.4967 -86.7658 103° East 450 518 28,200 -1,140 Descending Atlanta Center
03:30PM 34.4664 -86.6214 104° East 450 518 26,800 -1,500 Descending Atlanta Center
03:31PM 34.4422 -86.4769 101° East 450 518 25,300 -1,380 Descending Atlanta Center
03:32PM 34.4114 -86.3400 105° East 438 504 24,100 -660 Descending Atlanta Center
03:33PM 34.3825 -86.2083 105° East 424 488 24,000 -60 Descending Atlanta Center
03:34PM 34.3514 -86.0744 106° East 412 474 24,000  Level Atlanta Center
03:35PM 34.3222 -85.9378 104° East 412 474 24,000 -660 Level Atlanta Center
03:36PM 34.2972 -85.8064 103° East 407 468 22,700 -1,440 Descending Atlanta Center
03:38PM 34.1671 -85.6976 145° Southeast  Level FlightAware Approximate
03:38PM 34.2503 -85.5592 145° Southeast 396 456 19,800  Level Atlanta Center
03:39PM 34.2225 -85.4306 105° East 390 449 17,700 -4,200 Descending Atlanta Center
03:41PM 34.1667 -85.2000 106° East 292 336 7,100 -3,540 Descending Atlanta TRACON
03:42PM 34.1667 -85.1167 90° East 263 303 7,000 -60 Descending Atlanta TRACON
03:43PM 34.1833 -85.0333 76° East 290 334 7,000 -1,080 Level Atlanta TRACON
03:44PM 34.2333 -84.9833 40° Northeast 261 300 5,000 -2,280 Descending Atlanta TRACON
03:52PM 34.3230 -84.8220 56° Northeast  Level FlightAware Approximate
03:59PM 34.1167 -84.8333 180° South  Level FlightAware Approximate
04:00PM 34.1231 -84.8487 180° South  Level Estimated
04:01PM 34.1231 -84.8487 180° South  Level Estimated
04:02PM 34.1231 -84.8487 180° South  Level Estimated
04:03PM 34.1231 -84.8487 180° South  Level Estimated
04:04PM 34.1231 -84.8487 180° South  Level Estimated
04:05PM 34.1231 -84.8487 180° South  Level Estimated
04:06PM 34.1231 -84.8487 180° South  Level Estimated
04:07PM 34.1231 -84.8487 180° South  Level Estimated